Key West Naval Air Station, Florida
Current Conditions -  °F | °C
As of 6:53 AM on Thursday 18 Dec 2014 (Local Time) from KNQX Reporting Station
Clear Clear  
Wind Chill: 65°   Ceiling: Unl
Heat Index: 65°   Visibility: 10mi
Dew Point: 59°   Wind: 5mph
Humidity: 81%   Direction: 40°NE
Pressure: 30.14"   Gusts: NA
Location:  24.5796°N, 81.6849°W
Report Text: KNQX 181153Z 04004KT 10SM CLR 18/15 A3014 RMK AO2 SLP206 T01830150 10189 20172 53003
Loading
Personal Weather Stations






























Interactive Weather Map New forecast layout! Learn more

10-Day Weather Forecast

Advertisements
Track Severe Weather on mobile